Time,TemperatureF,DewpointF,PressureIn,WindDirection,WindDirectionDegrees,WindSpeedMPH,WindSpeedGustMPH,Humidity,HourlyPrecipIn,Conditions,Clouds,dailyrainin,SoftwareType,DateUTC
2013-10-13 00:23:00,44.0,36.0,30.09,NW,318,0.0,-999.0,74,-99.99,,,-99.99,,2013-10-13 05:23:00,
2013-10-13 00:43:00,43.0,35.0,30.09,NW,319,0.0,-999.0,74,-99.99,,,-99.99,,2013-10-13 05:43:00,
2013-10-13 00:52:00,43.0,36.0,30.10,NW,319,0.0,-999.0,75,-99.99,,,-99.99,,2013-10-13 05:52:00,
2013-10-13 01:22:00,42.0,35.0,30.12,NW,319,0.0,-999.0,76,-99.99,,,-99.99,,2013-10-13 06:22:00,
2013-10-13 01:52:00,42.0,35.0,30.14,NW,318,0.0,-999.0,76,-99.99,,,-99.99,,2013-10-13 06:52:00,
2013-10-13 02:21:00,42.0,36.0,30.15,WNW,300,0.0,-999.0,78,-99.99,,,-99.99,,2013-10-13 07:21:00,
2013-10-13 02:52:00,41.0,35.0,30.17,WNW,299,0.0,-999.0,79,-99.99,,,-99.99,,2013-10-13 07:52:00,
2013-10-13 03:22:00,40.0,34.0,30.17,WNW,294,0.0,-999.0,80,-99.99,,,-99.99,,2013-10-13 08:22:00,
2013-10-13 03:42:00,40.0,35.0,30.17,WNW,294,0.0,-999.0,81,-99.99,,,-99.99,,2013-10-13 08:42:00,
2013-10-13 03:52:00,39.0,34.0,30.17,WNW,294,0.0,-999.0,82,-99.99,,,-99.99,,2013-10-13 08:52:00,
2013-10-13 04:22:00,38.0,33.0,30.18,WNW,294,0.0,-999.0,83,-99.99,,,-99.99,,2013-10-13 09:22:00,
2013-10-13 04:43:00,38.0,33.0,30.18,WNW,294,0.0,-999.0,83,-99.99,,,-99.99,,2013-10-13 09:43:00,
2013-10-13 04:53:00,37.0,33.0,30.19,WNW,294,0.0,-999.0,84,-99.99,,,-99.99,,2013-10-13 09:53:00,
2013-10-13 05:23:00,36.0,33.0,30.20,WNW,294,0.0,-999.0,87,-99.99,,,-99.99,,2013-10-13 10:23:00,
2013-10-13 05:53:00,35.0,32.0,30.22,WNW,294,0.0,-999.0,88,-99.99,,,-99.99,,2013-10-13 10:53:00,
2013-10-13 06:22:00,35.0,32.0,30.24,WNW,294,0.0,-999.0,88,-99.99,,,-99.99,,2013-10-13 11:22:00,
2013-10-13 06:52:00,35.0,32.0,30.25,WNW,294,0.0,-999.0,89,-99.99,,,-99.99,,2013-10-13 11:52:00,
2013-10-13 07:21:00,35.0,32.0,30.26,WNW,292,0.0,-999.0,88,-99.99,,,-99.99,,2013-10-13 12:21:00,
2013-10-13 07:52:00,35.0,32.0,30.27,WNW,293,0.0,-999.0,89,-99.99,,,-99.99,,2013-10-13 12:52:00,
2013-10-13 08:22:00,35.0,32.0,30.28,WNW,292,0.0,-999.0,90,-99.99,,,-99.99,,2013-10-13 13:22:00,
2013-10-13 08:52:00,37.0,34.0,30.30,WNW,288,0.0,-999.0,88,-99.99,,,-99.99,,2013-10-13 13:52:00,
2013-10-13 09:21:00,39.0,35.0,30.31,SW,226,2.0,-999.0,85,-99.99,,,-99.99,,2013-10-13 14:21:00,
2013-10-13 09:42:00,40.0,36.0,30.31,SW,226,0.0,-999.0,84,-99.99,,,-99.99,,2013-10-13 14:42:00,
2013-10-13 09:52:00,42.0,37.0,30.32,SW,225,0.0,-999.0,81,-99.99,,,-99.99,,2013-10-13 14:52:00,
2013-10-13 10:22:00,45.0,38.0,30.33,SW,222,0.0,-999.0,77,-99.99,,,-99.99,,2013-10-13 15:22:00,
2013-10-13 10:43:00,46.0,39.0,30.33,SW,229,0.0,-999.0,76,-99.99,,,-99.99,,2013-10-13 15:43:00,
2013-10-13 10:54:00,48.0,40.0,30.33,SW,229,0.0,-999.0,73,-99.99,,,-99.99,,2013-10-13 15:54:00,
2013-10-13 11:12:00,49.0,40.0,30.33,SW,229,0.0,-999.0,72,-99.99,,,-99.99,,2013-10-13 16:12:00,
2013-10-13 11:24:00,52.0,42.0,30.33,SW,229,0.0,-999.0,68,-99.99,,,-99.99,,2013-10-13 16:24:00,
2013-10-13 11:42:00,52.0,40.0,30.33,SW,227,1.0,-999.0,64,-99.99,,,-99.99,,2013-10-13 16:42:00,
2013-10-13 11:54:00,53.0,41.0,30.34,SW,227,0.0,-999.0,64,-99.99,,,-99.99,,2013-10-13 16:54:00,
2013-10-13 12:22:00,54.0,39.0,30.33,WNW,301,1.0,-999.0,57,-99.99,,,-99.99,,2013-10-13 17:22:00,
2013-10-13 12:52:00,55.0,37.0,30.32,NNW,338,0.0,-999.0,51,-99.99,,,-99.99,,2013-10-13 17:52:00,
2013-10-13 13:22:00,56.0,38.0,30.31,NW,311,1.0,-999.0,51,-99.99,,,-99.99,,2013-10-13 18:22:00,
2013-10-13 13:32:00,56.0,38.0,30.31,NW,311,1.0,-999.0,51,-99.99,,,-99.99,,2013-10-13 18:32:00,
2013-10-13 13:42:00,56.0,38.0,30.31,NW,311,1.0,-999.0,51,-99.99,,,-99.99,,2013-10-13 18:42:00,
2013-10-13 13:52:00,56.0,38.0,30.31,NW,311,1.0,-999.0,51,-99.99,,,-99.99,,2013-10-13 18:52:00,
2013-10-13 21:52:00,44.0,36.0,30.30,NW,314,0.0,-999.0,74,-99.99,,,-99.99,,2013-10-14 02:52:00,
2013-10-13 22:22:00,43.0,36.0,30.30,NW,314,0.0,-999.0,77,-99.99,,,-99.99,,2013-10-14 03:22:00,
2013-10-13 22:55:00,44.0,35.0,30.30,NW,314,0.0,-999.0,71,-99.99,,,-99.99,,2013-10-14 03:55:00,
2013-10-13 23:14:00,44.0,34.0,30.30,NW,314,0.0,-999.0,69,-99.99,,,-99.99,,2013-10-14 04:14:00,
2013-10-13 23:24:00,45.0,35.0,30.31,NNW,348,0.0,-999.0,68,-99.99,,,-99.99,,2013-10-14 04:24:00,
2013-10-13 23:43:00,44.0,34.0,30.31,NNW,348,0.0,-999.0,69,-99.99,,,-99.99,,2013-10-14 04:43:00,
2013-10-13 23:54:00,43.0,35.0,30.31,NNW,348,0.0,-999.0,72,-99.99,,,-99.99,,2013-10-14 04:54:00,